Time;durP1;ratioP1;P1;durP2;ratioP2;P2;SDS_P1;SDS_P2;PMS_P1;PMS_P2;Temp;Humidity;BMP_temperature;BMP_pressure;BME280_temperature;BME280_humidity;BME280_pressure;Samples;Min_cycle;Max_cycle;Signal;HPM_P1;HPM_P2
2022/11/20 00:01:43;;;;;;;19.55;9.80;;;2.80;99.90;;;;;;5229353;28;20047;-60
2022/11/20 00:04:15;;;;;;;20.85;10.27;;;2.90;99.90;;;;;;5208141;28;20321;-60
2022/11/20 00:06:49;;;;;;;18.10;10.02;;;2.90;99.90;;;;;;5220397;28;20044;-62
2022/11/20 00:09:20;;;;;;;19.65;9.45;;;2.80;99.90;;;;;;5219816;28;20038;-60
2022/11/20 00:11:56;;;;;;;19.67;9.70;;;2.80;99.90;;;;;;5237215;28;20045;-61
2022/11/20 00:14:28;;;;;;;19.15;9.73;;;2.90;99.90;;;;;;5220696;28;20301;-60
2022/11/20 00:16:59;;;;;;;22.48;10.73;;;2.80;99.90;;;;;;5237423;28;20048;-61
2022/11/20 00:19:35;;;;;;;20.60;9.88;;;2.80;99.90;;;;;;5235413;28;20033;-60
2022/11/20 00:22:10;;;;;;;18.42;9.55;;;2.80;99.90;;;;;;5234059;28;20189;-60
2022/11/20 00:24:41;;;;;;;21.05;9.70;;;2.80;99.90;;;;;;5215979;28;20039;-61
2022/11/20 00:27:14;;;;;;;20.20;10.13;;;2.90;99.90;;;;;;5233384;28;20025;-61
2022/11/20 00:29:45;;;;;;;20.35;11.23;;;3.00;99.90;;;;;;5251280;28;20021;-62
2022/11/20 00:32:19;;;;;;;21.20;10.20;;;3.00;99.90;;;;;;5235961;28;20028;-62
2022/11/20 00:35:00;;;;;;;19.60;10.83;;;3.10;99.90;;;;;;5232190;28;20028;-61
2022/11/20 00:37:36;;;;;;;19.88;10.23;;;3.10;99.90;;;;;;5239173;28;20205;-61
2022/11/20 00:40:09;;;;;;;19.02;10.35;;;3.10;99.90;;;;;;5254507;28;20027;-60
2022/11/20 00:42:43;;;;;;;25.50;10.48;;;3.10;99.90;;;;;;5219085;28;20329;-61
2022/11/20 00:45:16;;;;;;;22.35;11.20;;;3.00;99.90;;;;;;5218983;28;20221;-60
2022/11/20 00:47:47;;;;;;;22.67;10.07;;;2.90;99.90;;;;;;5216086;28;20032;-61
2022/11/20 00:50:19;;;;;;;22.35;10.68;;;2.60;99.90;;;;;;5232264;28;20033;-60
2022/11/20 00:52:50;;;;;;;18.73;9.40;;;2.60;99.90;;;;;;5214209;28;20029;-60
2022/11/20 00:55:25;;;;;;;19.83;10.35;;;2.40;99.90;;;;;;5232700;28;20032;-61
2022/11/20 00:57:57;;;;;;;18.27;10.63;;;2.40;99.90;;;;;;5248596;28;20217;-60
2022/11/20 01:00:31;;;;;;;22.02;10.88;;;2.30;99.90;;;;;;5221150;28;20386;-61
2022/11/20 01:03:02;;;;;;;17.65;9.82;;;2.40;99.90;;;;;;5249696;22;20453;-85
2022/11/20 01:05:37;;;;;;;20.35;10.45;;;2.50;99.90;;;;;;5207835;28;20051;-86
2022/11/20 01:08:09;;;;;;;19.60;10.50;;;2.60;99.90;;;;;;5220517;28;20043;-86
2022/11/20 01:10:40;;;;;;;14.88;9.63;;;2.70;99.90;;;;;;5220792;28;20029;-85
2022/11/20 01:16:21;;;;;;;21.30;10.15;;;2.50;99.90;;;;;;5238113;28;20306;-83
2022/11/20 01:19:01;;;;;;;21.42;10.02;;;2.40;99.90;;;;;;5220607;28;20197;-83
2022/11/20 01:21:37;;;;;;;15.57;9.38;;;2.50;99.90;;;;;;5220021;28;20037;-84
2022/11/20 01:24:16;;;;;;;22.27;10.93;;;2.50;99.90;;;;;;5203376;28;20028;-84
2022/11/20 01:26:58;;;;;;;18.70;9.55;;;2.40;99.90;;;;;;5207698;28;20032;-85
2022/11/20 01:29:29;;;;;;;28.40;12.23;;;2.40;99.90;;;;;;5223908;28;20032;-85
2022/11/20 01:32:01;;;;;;;21.33;10.63;;;2.30;99.90;;;;;;5239186;28;20032;-87
2022/11/20 01:34:39;;;;;;;24.42;11.45;;;2.30;99.90;;;;;;5219980;28;20032;-85
2022/11/20 01:37:10;;;;;;;18.02;9.80;;;2.30;99.90;;;;;;5219851;28;20025;-85
2022/11/20 01:39:42;;;;;;;22.30;10.32;;;2.20;99.90;;;;;;5219897;28;20490;-85
2022/11/20 01:45:41;;;;;;;17.30;9.52;;;2.10;99.90;;;;;;5220158;28;20029;-85
2022/11/20 01:48:15;;;;;;;20.15;10.48;;;2.00;99.90;;;;;;5241377;28;20310;-86
2022/11/20 01:50:53;;;;;;;24.15;11.52;;;2.20;99.90;;;;;;5238106;28;20332;-86
2022/11/20 01:53:32;;;;;;;21.92;11.63;;;2.30;99.90;;;;;;5220212;28;20033;-86
2022/11/20 01:56:08;;;;;;;20.50;11.15;;;2.30;99.90;;;;;;5202586;28;20035;-86
2022/11/20 01:58:48;;;;;;;21.80;11.35;;;2.30;99.90;;;;;;5183521;28;20045;-86
2022/11/20 02:01:22;;;;;;;21.98;11.27;;;2.20;99.90;;;;;;5201068;28;20029;-85
2022/11/20 02:03:56;;;;;;;21.77;10.88;;;2.20;99.90;;;;;;5239789;28;20341;-86
2022/11/20 02:06:32;;;;;;;25.23;11.32;;;2.00;99.90;;;;;;5197832;28;20055;-87
2022/11/20 02:09:03;;;;;;;20.98;8.88;;;1.90;99.90;;;;;;5228325;28;20032;-86
2022/11/20 02:11:37;;;;;;;21.05;10.55;;;2.00;99.90;;;;;;5228141;28;20043;-86
2022/11/20 02:14:10;;;;;;;20.15;10.02;;;2.00;99.90;;;;;;5228394;28;20039;-86
2022/11/20 02:16:49;;;;;;;22.83;10.23;;;2.00;99.90;;;;;;5227614;28;20028;-86
2022/11/20 02:19:33;;;;;;;21.65;10.85;;;2.10;99.90;;;;;;5228458;28;20036;-86
2022/11/20 02:22:22;;;;;;;20.85;10.63;;;2.10;99.90;;;;;;5227912;28;20037;-88
2022/11/20 02:24:53;;;;;;;21.25;10.23;;;2.10;99.90;;;;;;5244759;28;20305;-85
2022/11/20 02:27:26;;;;;;;20.05;10.65;;;2.00;99.90;;;;;;5223403;28;20036;-86
2022/11/20 02:30:07;;;;;;;20.27;9.93;;;2.00;99.90;;;;;;5223190;28;20035;-86
2022/11/20 02:32:39;;;;;;;26.27;10.77;;;2.10;99.90;;;;;;5243750;28;20028;-85
2022/11/20 02:35:33;;;;;;;16.17;10.13;;;2.00;99.90;;;;;;5244363;28;20255;-86
2022/11/20 02:38:11;;;;;;;20.60;11.73;;;2.00;99.90;;;;;;5240295;28;20027;-86
2022/11/20 02:40:43;;;;;;;17.83;9.95;;;2.10;99.90;;;;;;5257395;28;20225;-86
2022/11/20 02:43:18;;;;;;;24.27;11.35;;;2.20;99.90;;;;;;5227847;28;20035;-85
2022/11/20 02:46:00;;;;;;;22.10;10.65;;;2.20;99.90;;;;;;5227773;28;20562;-85
2022/11/20 02:48:32;;;;;;;22.77;10.40;;;2.20;99.90;;;;;;5257197;28;20032;-85
2022/11/20 02:51:04;;;;;;;22.15;10.60;;;2.10;99.90;;;;;;5255894;28;20043;-87
2022/11/20 02:53:35;;;;;;;24.08;10.65;;;2.20;99.90;;;;;;5237038;28;20034;-86
2022/11/20 02:56:07;;;;;;;19.42;11.52;;;2.40;99.90;;;;;;5272849;28;20783;-86
2022/11/20 02:58:41;;;;;;;24.15;9.68;;;2.40;99.90;;;;;;5242718;28;20040;-84
2022/11/20 03:01:17;;;;;;;18.90;10.05;;;2.40;99.90;;;;;;5234265;28;20099;-85
2022/11/20 03:03:49;;;;;;;26.02;11.93;;;2.50;99.90;;;;;;5240929;28;20025;-85
2022/11/20 03:06:20;;;;;;;24.38;11.27;;;2.40;99.90;;;;;;5257011;28;20036;-87
2022/11/20 03:08:53;;;;;;;21.45;10.73;;;2.40;99.90;;;;;;5262107;28;20016;-85
2022/11/20 03:11:24;;;;;;;21.40;11.57;;;2.50;99.90;;;;;;5227340;28;20032;-87
2022/11/20 03:13:56;;;;;;;20.80;10.65;;;2.50;99.90;;;;;;5226868;28;20036;-86
2022/11/20 03:16:34;;;;;;;23.20;10.68;;;2.60;99.90;;;;;;5226678;28;20031;-87
2022/11/20 03:19:06;;;;;;;21.50;11.05;;;2.40;99.90;;;;;;5234668;28;20052;-86
2022/11/20 03:21:37;;;;;;;24.27;11.05;;;2.40;99.90;;;;;;5247701;28;20035;-87
2022/11/20 03:24:14;;;;;;;25.02;10.30;;;2.40;99.90;;;;;;5247273;28;20040;-87
2022/11/20 03:26:45;;;;;;;22.73;11.18;;;2.40;99.90;;;;;;5221928;28;20381;-87
2022/11/20 03:29:19;;;;;;;24.42;12.05;;;2.50;99.90;;;;;;5221703;28;20045;-89
2022/11/20 03:31:56;;;;;;;23.80;11.75;;;2.50;99.90;;;;;;5222481;28;20029;-86
2022/11/20 03:34:30;;;;;;;17.40;9.80;;;2.20;99.90;;;;;;5224699;28;20054;-85
2022/11/20 03:37:01;;;;;;;18.17;9.50;;;2.00;99.90;;;;;;5282106;28;20024;-85
2022/11/20 03:39:35;;;;;;;24.23;10.73;;;2.20;99.90;;;;;;5216180;28;20246;-86
2022/11/20 03:42:44;;;;;;;25.50;12.30;;;2.30;99.90;;;;;;5226309;28;20040;-86
2022/11/20 03:45:02;;;;;;;21.23;10.15;;;2.30;99.90;;;;;;5243021;28;20047;-86
2022/11/20 03:47:33;;;;;;;25.13;11.20;;;2.40;99.90;;;;;;5242143;28;20043;-86
2022/11/20 03:50:13;;;;;;;19.83;10.18;;;2.40;99.90;;;;;;5242974;28;20031;-86
2022/11/20 03:52:52;;;;;;;23.33;10.65;;;2.50;99.90;;;;;;5226331;28;20033;-86
2022/11/20 03:55:24;;;;;;;23.15;11.82;;;2.60;99.90;;;;;;5246846;28;20037;-85
2022/11/20 03:58:00;;;;;;;22.92;11.27;;;2.50;99.90;;;;;;5224830;28;20309;-85
2022/11/20 04:00:31;;;;;;;22.02;11.70;;;2.60;99.90;;;;;;5205077;28;20040;-86
2022/11/20 04:03:06;;;;;;;24.42;11.27;;;2.50;99.90;;;;;;5207025;28;20047;-86
2022/11/20 04:05:37;;;;;;;20.58;10.82;;;2.50;99.90;;;;;;5231545;28;20048;-87
2022/11/20 04:08:11;;;;;;;20.02;11.13;;;2.60;99.90;;;;;;5225412;28;20399;-87
2022/11/20 04:10:45;;;;;;;22.17;11.27;;;2.70;99.90;;;;;;5226108;28;20045;-87
2022/11/20 04:13:16;;;;;;;24.80;11.45;;;2.70;99.90;;;;;;5226571;28;20038;-86
2022/11/20 04:15:47;;;;;;;24.75;10.95;;;2.70;99.90;;;;;;5242262;28;20040;-88
2022/11/20 04:18:19;;;;;;;36.92;13.43;;;2.80;99.90;;;;;;5225378;28;20035;-86
2022/11/20 04:20:50;;;;;;;20.63;9.77;;;2.80;99.90;;;;;;5209259;28;20107;-87
2022/11/20 04:23:26;;;;;;;22.73;10.25;;;2.80;99.90;;;;;;5241933;28;20032;-84
2022/11/20 04:26:08;;;;;;;22.00;10.85;;;2.80;99.90;;;;;;5260259;28;20066;-85
2022/11/20 04:28:41;;;;;;;21.63;11.57;;;2.80;99.90;;;;;;5224819;28;20044;-87
2022/11/20 04:31:14;;;;;;;23.88;11.90;;;2.80;99.90;;;;;;5224832;28;20036;-88
2022/11/20 04:33:49;;;;;;;22.20;10.40;;;2.80;99.90;;;;;;5233302;28;20034;-85
2022/11/20 04:36:27;;;;;;;21.70;10.65;;;2.90;99.90;;;;;;5257321;28;20039;-91
2022/11/20 04:39:04;;;;;;;22.60;11.00;;;2.80;99.90;;;;;;5234191;28;20042;-87
2022/11/20 04:41:43;;;;;;;24.80;11.45;;;2.80;99.90;;;;;;5262933;28;20028;-87
2022/11/20 04:44:15;;;;;;;23.45;11.30;;;2.70;99.90;;;;;;5280990;28;20020;-87
2022/11/20 04:46:48;;;;;;;23.75;12.15;;;2.60;99.90;;;;;;5228654;28;20051;-86
2022/11/20 04:49:20;;;;;;;17.30;8.40;;;2.40;99.90;;;;;;5245659;28;20331;-86
2022/11/20 04:51:54;;;;;;;24.23;10.85;;;2.30;99.90;;;;;;5229163;28;20127;-86
2022/11/20 04:54:25;;;;;;;24.40;11.80;;;2.20;99.90;;;;;;5245521;28;20038;-87
2022/11/20 04:56:58;;;;;;;21.92;9.93;;;2.10;99.90;;;;;;5223150;28;20028;-87
2022/11/20 04:59:32;;;;;;;18.33;10.27;;;2.10;99.90;;;;;;5240967;28;20040;-86
2022/11/20 05:02:06;;;;;;;24.75;11.82;;;2.30;99.90;;;;;;5241712;28;20175;-87
2022/11/20 05:04:40;;;;;;;20.98;10.48;;;2.30;99.90;;;;;;5218724;28;20046;-87
2022/11/20 05:07:11;;;;;;;25.95;11.40;;;2.40;99.90;;;;;;5236663;28;20024;-86
2022/11/20 05:09:45;;;;;;;19.98;10.18;;;2.50;99.90;;;;;;5224722;28;20038;-87
2022/11/20 05:12:18;;;;;;;28.70;11.90;;;2.50;99.90;;;;;;5225180;28;20296;-87
2022/11/20 05:14:50;;;;;;;23.88;12.40;;;2.20;99.90;;;;;;5241827;28;20039;-86
2022/11/20 05:17:21;;;;;;;22.20;12.15;;;2.00;99.90;;;;;;5259736;28;20466;-86
2022/11/20 05:19:55;;;;;;;24.73;11.63;;;2.10;99.90;;;;;;5245009;28;20032;-84
2022/11/20 05:22:31;;;;;;;22.42;9.48;;;2.10;99.90;;;;;;5225201;28;20032;-85
2022/11/20 05:25:05;;;;;;;19.90;10.40;;;2.20;99.90;;;;;;5241222;28;20233;-85
2022/11/20 05:27:37;;;;;;;21.73;10.55;;;2.30;99.90;;;;;;5231709;28;20043;-86
2022/11/20 05:30:12;;;;;;;21.63;10.45;;;2.40;99.90;;;;;;5266604;28;20046;-86
2022/11/20 05:32:43;;;;;;;22.63;11.43;;;2.60;99.90;;;;;;5224303;28;20028;-87
2022/11/20 05:35:14;;;;;;;18.77;9.90;;;2.60;99.90;;;;;;5244110;28;20040;-87
2022/11/20 05:37:51;;;;;;;21.88;10.77;;;2.70;99.90;;;;;;5234804;28;20033;-86
2022/11/20 05:40:27;;;;;;;21.58;11.32;;;2.70;99.90;;;;;;5223987;28;20051;-87
2022/11/20 05:43:01;;;;;;;22.05;11.25;;;2.90;99.90;;;;;;5224111;28;20043;-86
2022/11/20 05:45:35;;;;;;;22.65;11.70;;;3.00;99.90;;;;;;5224999;28;20039;-87
2022/11/20 05:48:06;;;;;;;20.63;11.52;;;3.00;99.90;;;;;;5223012;28;20115;-87
2022/11/20 05:50:37;;;;;;;21.63;10.57;;;2.80;99.90;;;;;;5227127;28;20033;-86
2022/11/20 05:53:09;;;;;;;23.58;11.45;;;2.70;99.90;;;;;;5220311;28;20032;-84
2022/11/20 05:55:40;;;;;;;22.65;12.27;;;2.50;99.90;;;;;;5238409;28;20029;-85
2022/11/20 05:58:11;;;;;;;21.23;11.38;;;2.40;99.90;;;;;;5228812;28;20029;-85
2022/11/20 06:00:47;;;;;;;23.13;11.85;;;2.30;99.90;;;;;;5242510;28;20038;-85
2022/11/20 06:03:21;;;;;;;29.60;15.18;;;2.10;99.90;;;;;;5258268;28;20068;-87
2022/11/20 06:05:54;;;;;;;22.75;11.05;;;2.10;99.90;;;;;;5214818;28;20059;-86
2022/11/20 06:08:28;;;;;;;20.23;11.25;;;2.00;99.90;;;;;;5214290;28;20040;-86
2022/11/20 06:11:07;;;;;;;25.27;11.50;;;2.10;99.90;;;;;;5203759;28;20067;-85
2022/11/20 06:13:42;;;;;;;24.33;11.32;;;2.10;99.90;;;;;;5220675;28;20029;-84
2022/11/20 06:16:21;;;;;;;23.80;12.63;;;2.00;99.90;;;;;;5204688;28;20039;-84
2022/11/20 06:18:55;;;;;;;24.73;11.18;;;2.00;99.90;;;;;;5238473;28;20046;-85
2022/11/20 06:21:26;;;;;;;24.05;10.48;;;2.10;99.90;;;;;;5245254;28;20038;-86
2022/11/20 06:24:00;;;;;;;28.20;13.48;;;2.10;99.90;;;;;;5245209;28;20032;-85
2022/11/20 06:26:31;;;;;;;21.02;10.88;;;2.20;99.90;;;;;;5236621;28;20036;-86
2022/11/20 06:29:05;;;;;;;26.00;12.68;;;2.20;99.90;;;;;;5223883;28;20028;-86
2022/11/20 06:31:42;;;;;;;21.77;10.93;;;2.10;99.90;;;;;;5224609;28;20032;-86
2022/11/20 06:34:13;;;;;;;23.55;11.38;;;2.10;99.90;;;;;;5246713;28;20036;-85
2022/11/20 06:36:44;;;;;;;26.75;13.60;;;2.30;99.90;;;;;;5204564;28;20029;-85
2022/11/20 06:39:16;;;;;;;25.23;12.25;;;2.40;99.90;;;;;;5208035;28;20035;-86
2022/11/20 06:41:47;;;;;;;27.80;13.75;;;2.20;99.90;;;;;;5239848;28;20040;-86
2022/11/20 06:44:21;;;;;;;24.95;12.80;;;2.10;99.90;;;;;;5228407;28;20336;-87
2022/11/20 06:46:52;;;;;;;24.65;11.48;;;2.20;99.90;;;;;;5223003;28;20066;-87
2022/11/20 06:49:26;;;;;;;26.13;11.82;;;2.30;99.90;;;;;;5223109;28;20025;-87
2022/11/20 06:52:02;;;;;;;23.40;12.75;;;2.40;99.90;;;;;;5223952;28;20024;-87
2022/11/20 06:54:41;;;;;;;22.35;11.80;;;2.40;99.90;;;;;;5242547;28;20031;-87
2022/11/20 06:57:12;;;;;;;22.42;11.27;;;2.40;99.90;;;;;;5247125;28;20032;-87
2022/11/20 06:59:49;;;;;;;22.58;11.75;;;2.30;99.90;;;;;;5229200;28;20036;-87
2022/11/20 07:02:22;;;;;;;28.60;11.90;;;2.50;99.90;;;;;;5227811;28;20044;-87
2022/11/20 07:04:57;;;;;;;27.75;12.02;;;2.70;99.90;;;;;;5218359;28;20040;-87
2022/11/20 07:07:31;;;;;;;23.77;13.23;;;2.70;99.90;;;;;;5229022;28;20519;-92
2022/11/20 07:10:04;;;;;;;25.67;13.83;;;2.80;99.90;;;;;;5246859;28;20043;-87
2022/11/20 07:12:36;;;;;;;25.40;13.38;;;2.90;99.90;;;;;;5230380;28;20046;-86
2022/11/20 07:15:12;;;;;;;27.38;13.13;;;3.00;99.90;;;;;;5220839;28;20262;-86
2022/11/20 07:17:46;;;;;;;25.48;11.95;;;3.10;99.90;;;;;;5223256;28;20240;-88
2022/11/20 07:20:17;;;;;;;28.73;12.98;;;3.10;99.90;;;;;;5221761;28;20218;-88
2022/11/20 07:22:57;;;;;;;26.02;12.73;;;3.20;99.90;;;;;;5218466;28;20028;-86
2022/11/20 07:25:39;;;;;;;26.83;12.65;;;3.10;99.90;;;;;;5216386;28;20043;-88
2022/11/20 07:28:11;;;;;;;24.73;13.38;;;3.10;99.90;;;;;;5231452;28;20039;-86
2022/11/20 07:30:44;;;;;;;24.60;12.30;;;3.00;99.90;;;;;;5251539;28;20029;-86
2022/11/20 07:33:15;;;;;;;30.73;12.65;;;2.90;99.90;;;;;;5251452;28;20024;-87
2022/11/20 07:35:54;;;;;;;24.25;11.43;;;3.00;99.90;;;;;;5245674;28;20031;-87
2022/11/20 07:38:25;;;;;;;22.15;10.98;;;3.10;99.90;;;;;;5266701;28;20020;-88
2022/11/20 07:40:57;;;;;;;20.92;10.82;;;3.20;99.90;;;;;;5249064;28;20048;-86
2022/11/20 07:43:32;;;;;;;21.95;11.95;;;3.10;99.90;;;;;;5267121;28;20027;-89
2022/11/20 07:46:04;;;;;;;;;;;3.10;99.90;;;;;;5232749;28;20035;-87
2022/11/20 07:48:35;;;;;;;23.52;10.43;;;3.10;99.90;;;;;;5238762;28;19910;-90
2022/11/20 07:51:07;;;;;;;22.55;11.68;;;3.00;99.90;;;;;;5230446;28;20024;-90
2022/11/20 07:53:41;;;;;;;20.85;11.15;;;2.90;99.90;;;;;;5247795;28;20033;-90
2022/11/20 07:56:18;;;;;;;21.38;12.38;;;3.00;99.90;;;;;;5231123;28;20038;-91
2022/11/20 07:58:54;;;;;;;19.83;11.05;;;3.00;99.90;;;;;;5263258;28;20046;-90
2022/11/20 08:01:28;;;;;;;18.75;10.68;;;2.80;99.90;;;;;;5246834;28;20048;-89
2022/11/20 08:04:02;;;;;;;20.90;10.40;;;2.80;99.90;;;;;;5250727;28;20027;-91
2022/11/20 08:06:39;;;;;;;21.17;11.70;;;2.80;99.90;;;;;;5232653;28;20049;-90
2022/11/20 08:09:10;;;;;;;24.10;11.40;;;2.80;99.90;;;;;;5230534;28;20031;-89
2022/11/20 08:14:36;;;;;;;23.23;10.68;;;2.60;99.90;;;;;;5231641;28;20036;-90
2022/11/20 08:17:09;;;;;;;23.42;11.40;;;2.60;99.90;;;;;;5241455;28;20438;-90
2022/11/20 08:19:41;;;;;;;23.58;12.38;;;2.60;99.90;;;;;;5246765;28;20032;-89
2022/11/20 08:22:15;;;;;;;22.58;12.07;;;2.60;99.90;;;;;;5246558;28;20035;-91
2022/11/20 08:24:49;;;;;;;23.65;11.45;;;2.40;99.90;;;;;;5230734;28;20050;-90
2022/11/20 08:27:21;;;;;;;25.30;13.10;;;2.50;99.90;;;;;;5237493;28;20024;-91
2022/11/20 08:29:54;;;;;;;24.55;11.50;;;2.60;99.90;;;;;;5227458;28;20033;-92
2022/11/20 08:32:26;;;;;;;23.80;11.93;;;2.80;99.90;;;;;;5243648;28;20037;-90
2022/11/20 08:34:58;;;;;;;23.67;12.52;;;2.80;99.90;;;;;;5247286;28;20075;-91
2022/11/20 08:37:35;;;;;;;23.65;12.90;;;2.80;99.90;;;;;;5246403;28;20047;-92
2022/11/20 08:40:06;;;;;;;20.40;11.05;;;2.60;99.90;;;;;;5232441;28;20024;-91
2022/11/20 08:42:48;;;;;;;20.95;11.13;;;2.80;99.90;;;;;;5226590;28;20510;-91
2022/11/20 08:45:40;;;;;;;23.92;11.77;;;2.90;99.90;;;;;;5224888;28;20043;-92
2022/11/20 08:48:11;;;;;;;20.05;11.57;;;3.10;99.90;;;;;;5242718;28;20035;-92
2022/11/20 08:50:44;;;;;;;21.98;11.25;;;3.00;99.90;;;;;;5225356;28;20035;-91
2022/11/20 08:53:16;;;;;;;23.17;10.93;;;3.20;99.90;;;;;;5255108;28;20033;-88
2022/11/20 08:55:52;;;;;;;24.27;11.15;;;3.30;99.90;;;;;;5225529;28;20032;-89
2022/11/20 08:58:25;;;;;;;24.73;12.15;;;3.50;99.90;;;;;;5241447;28;20030;-92
2022/11/20 09:00:57;;;;;;;24.88;12.40;;;3.30;99.90;;;;;;5224517;28;20036;-93
2022/11/20 09:03:29;;;;;;;27.52;10.77;;;3.30;99.90;;;;;;5229650;28;20055;-90
2022/11/20 09:06:05;;;;;;;81.97;54.63;;;3.40;99.90;;;;;;5220693;28;20118;-88
2022/11/20 09:08:39;;;;;;;288.30;188.25;;;4.00;99.90;;;;;;5255526;28;20066;-91
2022/11/20 09:11:10;;;;;;;102.38;91.38;;;4.60;99.90;;;;;;5259239;28;20051;-87
2022/11/20 09:13:44;;;;;;;78.90;70.55;;;4.60;99.90;;;;;;5265294;28;20023;-89
2022/11/20 09:16:20;;;;;;;33.78;20.77;;;4.50;99.90;;;;;;5247393;28;20034;-89
2022/11/20 09:18:51;;;;;;;27.27;17.73;;;4.60;99.90;;;;;;5234573;28;20024;-91
2022/11/20 09:21:25;;;;;;;25.23;13.30;;;4.30;99.90;;;;;;5227122;28;20036;-92
2022/11/20 09:23:59;;;;;;;51.60;37.05;;;4.70;99.90;;;;;;5227329;28;20028;-88
2022/11/20 09:26:30;;;;;;;30.40;13.65;;;4.90;99.90;;;;;;5226964;28;20345;-88
2022/11/20 09:29:01;;;;;;;31.50;19.88;;;5.00;99.90;;;;;;5240194;28;20483;-90
2022/11/20 09:31:35;;;;;;;51.40;32.00;;;5.10;99.90;;;;;;5228385;28;20032;-89
2022/11/20 09:34:09;;;;;;;35.10;23.73;;;5.10;99.90;;;;;;5215961;28;20036;-89
2022/11/20 09:36:41;;;;;;;97.85;76.68;;;4.80;99.90;;;;;;5206963;28;20314;-88
2022/11/20 09:39:14;;;;;;;101.43;85.90;;;4.60;99.90;;;;;;5217467;28;20037;-88
2022/11/20 09:42:02;;;;;;;27.73;18.30;;;4.20;99.90;;;;;;5206339;28;20047;-89
2022/11/20 09:44:45;;;;;;;25.95;13.95;;;4.30;99.90;;;;;;5206226;28;20225;-88
2022/11/20 09:47:47;;;;;;;27.05;15.95;;;4.30;99.90;;;;;;5243080;28;20024;-91
2022/11/20 09:50:36;;;;;;;28.63;14.90;;;4.40;99.90;;;;;;5222013;28;20233;-88
2022/11/20 09:53:24;;;;;;;28.83;14.50;;;4.50;99.90;;;;;;5238821;28;20040;-91
2022/11/20 09:56:01;;;;;;;35.67;19.08;;;4.70;99.90;;;;;;5235422;28;20032;-89
2022/11/20 09:58:41;;;;;;;29.42;15.35;;;4.80;99.90;;;;;;5208446;28;20033;-86
2022/11/20 10:01:16;;;;;;;30.58;15.43;;;4.90;99.90;;;;;;5240702;28;20024;-87
2022/11/20 10:04:13;;;;;;;32.80;18.50;;;5.30;99.90;;;;;;5253191;28;20027;-89
2022/11/20 10:07:10;;;;;;;27.65;14.65;;;5.60;99.90;;;;;;5197317;28;20044;-88
2022/11/20 10:09:52;;;;;;;29.55;19.10;;;5.70;99.90;;;;;;5234686;28;20030;-87
2022/11/20 10:12:38;;;;;;;40.50;26.52;;;5.50;99.90;;;;;;5240626;28;20040;-87
2022/11/20 10:15:29;;;;;;;29.05;13.32;;;5.60;99.90;;;;;;5239181;28;20034;-88
2022/11/20 10:18:27;;;;;;;25.50;13.88;;;5.60;99.90;;;;;;5220299;28;20034;-89
2022/11/20 10:21:33;;;;;;;191.13;156.05;;;5.90;99.90;;;;;;5226137;28;20029;-87
2022/11/20 10:24:19;;;;;;;29.92;16.92;;;5.70;99.90;;;;;;5221796;28;20036;-87
2022/11/20 10:27:26;;;;;;;27.48;15.25;;;5.40;99.90;;;;;;5223838;28;20032;-87
2022/11/20 10:30:24;;;;;;;33.63;22.15;;;5.40;99.90;;;;;;5260944;28;20017;-87
2022/11/20 10:33:05;;;;;;;32.05;15.57;;;5.40;99.90;;;;;;5225976;28;20038;-87
2022/11/20 10:35:43;;;;;;;37.95;24.42;;;5.60;99.90;;;;;;5226100;28;20038;-85
2022/11/20 10:38:42;;;;;;;30.25;18.52;;;5.70;99.90;;;;;;5236304;28;20032;-87
2022/11/20 10:41:43;;;;;;;30.48;19.55;;;6.10;99.90;;;;;;5235047;28;20047;-87
2022/11/20 10:45:05;;;;;;;40.08;25.90;;;6.90;99.90;;;;;;5249224;28;20037;-86
2022/11/20 10:47:15;;;;;;;25.92;13.88;;;7.50;99.90;;;;;;5243474;28;20035;-88
2022/11/20 10:49:54;;;;;;;30.80;16.00;;;7.90;99.90;;;;;;5239903;28;20029;-88
2022/11/20 10:52:43;;;;;;;37.58;23.05;;;7.80;99.90;;;;;;5238170;28;20027;-89
2022/11/20 10:59:15;;;;;;;33.35;18.23;;;6.70;99.90;;;;;;5245942;28;20124;-89
2022/11/20 11:01:55;;;;;;;42.47;23.25;;;6.30;99.90;;;;;;5240545;28;20032;-90
2022/11/20 11:04:35;;;;;;;32.17;17.30;;;6.40;99.90;;;;;;5222272;28;20024;-89
2022/11/20 11:07:30;;;;;;;30.17;16.67;;;6.10;99.90;;;;;;5215050;28;20021;-90
2022/11/20 11:10:16;;;;;;;29.27;19.48;;;6.30;99.90;;;;;;5238310;28;20397;-92
2022/11/20 11:12:51;;;;;;;52.40;32.97;;;6.30;99.90;;;;;;5213896;28;20043;-90
2022/11/20 11:15:32;;;;;;;;;;;6.60;99.90;;;;;;5229119;28;20128;-90
2022/11/20 11:18:03;;;;;;;41.72;25.75;;;7.10;99.90;;;;;;5249204;28;19926;-90
2022/11/20 11:20:38;;;;;;;32.55;19.63;;;7.60;99.90;;;;;;5231148;28;20032;-91
2022/11/20 11:23:32;;;;;;;28.50;15.55;;;8.00;99.90;;;;;;5245101;28;20033;-89
2022/11/20 11:26:21;;;;;;;37.22;23.60;;;8.20;99.90;;;;;;5232500;28;20033;-90
2022/11/20 11:28:59;;;;;;;32.47;16.55;;;8.40;99.90;;;;;;5213045;28;20043;-89
2022/11/20 11:31:36;;;;;;;54.35;37.17;;;8.50;99.90;;;;;;5247191;28;20047;-89
2022/11/20 11:34:20;;;;;;;27.33;15.63;;;8.20;99.90;;;;;;5242129;28;20043;-87
2022/11/20 11:36:59;;;;;;;68.57;50.65;;;8.30;99.90;;;;;;5221999;28;20020;-91
2022/11/20 11:39:44;;;;;;;53.38;33.30;;;8.30;99.90;;;;;;5246571;28;20033;-91
2022/11/20 11:42:24;;;;;;;29.55;18.02;;;8.20;99.90;;;;;;5240507;28;20043;-93
2022/11/20 11:45:06;;;;;;;26.58;15.60;;;8.70;99.90;;;;;;5216049;28;20032;-89
2022/11/20 11:47:51;;;;;;;28.42;14.90;;;8.80;99.90;;;;;;5226324;28;20039;-90
2022/11/20 11:50:29;;;;;;;24.63;13.43;;;8.70;99.90;;;;;;5240238;28;20043;-92
2022/11/20 11:53:16;;;;;;;26.20;15.32;;;8.60;99.90;;;;;;5226480;28;20032;-92
2022/11/20 11:55:57;;;;;;;30.10;14.93;;;8.80;99.90;;;;;;5245659;28;20040;-93
2022/11/20 11:58:55;;;;;;;32.00;18.50;;;9.80;99.90;;;;;;5225465;28;20229;-89
2022/11/20 12:01:54;;;;;;;100.07;60.75;;;12.00;99.90;;;;;;5227197;28;20051;-89
2022/11/20 12:04:47;;;;;;;43.20;27.33;;;13.80;99.90;;;;;;5218387;28;20043;-91
2022/11/20 12:07:36;;;;;;;29.20;18.30;;;15.30;99.90;;;;;;5224770;22;20126;-63
2022/11/20 12:10:32;;;;;;;26.23;13.63;;;14.70;99.90;;;;;;5163978;28;20284;-61
2022/11/20 12:13:30;;;;;;;21.20;13.10;;;14.90;99.90;;;;;;5146665;28;20045;-65
2022/11/20 12:16:05;;;;;;;23.95;14.32;;;15.40;99.90;;;;;;5162266;28;20030;-63
2022/11/20 12:18:51;;;;;;;29.40;13.27;;;15.80;99.90;;;;;;5168515;28;20049;-59
2022/11/20 12:21:25;;;;;;;24.60;13.83;;;16.60;99.90;;;;;;5149852;28;20242;-62
2022/11/20 12:24:12;;;;;;;25.25;14.65;;;16.60;99.90;;;;;;5153150;28;20200;-60
2022/11/20 12:27:13;;;;;;;34.47;23.15;;;15.20;99.90;;;;;;5149443;28;20050;-60
2022/11/20 12:30:11;;;;;;;23.40;12.52;;;14.60;99.90;;;;;;5148642;28;20034;-61
2022/11/20 12:33:19;;;;;;;68.03;35.53;;;15.10;99.90;;;;;;5166948;28;20038;-61
2022/11/20 12:36:07;;;;;;;42.85;23.58;;;15.50;99.90;;;;;;5167495;28;20020;-61
2022/11/20 12:39:05;;;;;;;47.78;26.58;;;15.20;99.90;;;;;;5183791;28;20026;-60
2022/11/20 12:45:14;;;;;;;302.45;169.75;;;15.80;99.90;;;;;;5125544;29;20039;-60
2022/11/20 12:48:15;;;;;;;189.20;114.63;;;16.20;99.90;;;;;;5128128;28;20035;-60
2022/11/20 12:50:56;;;;;;;139.10;76.90;;;16.10;99.90;;;;;;5164660;28;20022;-60
2022/11/20 12:53:39;;;;;;;24.35;13.80;;;16.50;99.90;;;;;;5152708;28;20052;-61
2022/11/20 12:56:33;;;;;;;47.28;29.27;;;16.10;99.90;;;;;;5168060;28;20018;-60
2022/11/20 12:59:05;;;;;;;44.58;25.63;;;16.00;99.90;;;;;;5166340;28;20481;-60
2022/11/20 13:01:47;;;;;;;19.33;12.60;;;16.40;99.90;;;;;;5169485;28;20034;-63
2022/11/20 13:04:18;;;;;;;116.90;65.05;;;15.80;99.90;;;;;;5163566;28;20018;-62
2022/11/20 13:07:00;;;;;;;40.05;24.30;;;16.00;99.90;;;;;;5159360;28;20202;-62
2022/11/20 13:09:51;;;;;;;1084.38;629.47;;;15.40;99.90;;;;;;5177730;28;20210;-59
2022/11/20 13:12:45;;;;;;;479.60;303.10;;;15.50;99.90;;;;;;5155981;28;20037;-61
2022/11/20 13:15:47;;;;;;;140.75;85.72;;;15.10;99.90;;;;;;5168387;28;20202;-64
2022/11/20 13:18:22;;;;;;;450.52;276.25;;;14.70;99.90;;;;;;5157035;28;20366;-64
2022/11/20 13:20:54;;;;;;;314.95;184.10;;;14.80;99.90;;;;;;5189048;28;20038;-62
2022/11/20 13:23:27;;;;;;;111.68;63.70;;;14.40;99.90;;;;;;5172637;28;20029;-61
2022/11/20 13:26:15;;;;;;;448.95;279.77;;;13.80;99.90;;;;;;5172546;28;20029;-62
2022/11/20 13:29:11;;;;;;;348.73;181.00;;;13.20;99.90;;;;;;5185393;28;20030;-61
2022/11/20 13:31:45;;;;;;;122.47;63.10;;;12.20;99.90;;;;;;5182743;28;20030;-61
2022/11/20 13:34:30;;;;;;;77.00;43.63;;;10.90;99.90;;;;;;5203433;28;20025;-61
2022/11/20 13:37:03;;;;;;;;;;;10.50;99.90;;;;;;5211986;28;20032;-60
2022/11/20 13:39:37;;;;;;;22.55;12.93;;;10.90;99.90;;;;;;5164380;28;19910;-60
2022/11/20 13:42:14;;;;;;;21.15;12.38;;;11.40;99.90;;;;;;5172438;28;20026;-61
2022/11/20 13:44:54;;;;;;;23.48;14.40;;;11.30;99.90;;;;;;5157347;28;20030;-61